sensor_id;sensor_type;location;lat;lon;timestamp;P1;durP1;ratioP1;P2;durP2;ratioP2
12165;SDS011;6146;48.128;11.476;2023-03-14T00:01:22;0.50;;;0.50;;
12165;SDS011;6146;48.128;11.476;2023-03-14T00:03:48;0.87;;;0.60;;
12165;SDS011;6146;48.128;11.476;2023-03-14T00:06:14;0.43;;;0.43;;
12165;SDS011;6146;48.128;11.476;2023-03-14T00:08:41;0.87;;;0.57;;
12165;SDS011;6146;48.128;11.476;2023-03-14T00:11:08;0.57;;;0.57;;
12165;SDS011;6146;48.128;11.476;2023-03-14T00:13:39;0.47;;;0.47;;
12165;SDS011;6146;48.128;11.476;2023-03-14T00:16:06;1.20;;;1.10;;
12165;SDS011;6146;48.128;11.476;2023-03-14T00:18:33;0.60;;;0.60;;
12165;SDS011;6146;48.128;11.476;2023-03-14T00:21:00;0.63;;;0.63;;
12165;SDS011;6146;48.128;11.476;2023-03-14T00:23:27;0.50;;;0.50;;
12165;SDS011;6146;48.128;11.476;2023-03-14T00:25:57;1.33;;;0.50;;
12165;SDS011;6146;48.128;11.476;2023-03-14T00:28:27;0.73;;;0.63;;
12165;SDS011;6146;48.128;11.476;2023-03-14T00:30:53;0.60;;;0.60;;
12165;SDS011;6146;48.128;11.476;2023-03-14T00:33:19;0.50;;;0.50;;
12165;SDS011;6146;48.128;11.476;2023-03-14T00:35:55;0.37;;;0.37;;
12165;SDS011;6146;48.128;11.476;2023-03-14T00:38:22;0.50;;;0.40;;
12165;SDS011;6146;48.128;11.476;2023-03-14T00:40:49;0.20;;;0.20;;
12165;SDS011;6146;48.128;11.476;2023-03-14T00:43:15;0.60;;;0.60;;
12165;SDS011;6146;48.128;11.476;2023-03-14T00:45:41;0.30;;;0.30;;
12165;SDS011;6146;48.128;11.476;2023-03-14T00:48:07;0.70;;;0.50;;
12165;SDS011;6146;48.128;11.476;2023-03-14T00:50:32;0.30;;;0.30;;
12165;SDS011;6146;48.128;11.476;2023-03-14T00:52:58;0.23;;;0.23;;
12165;SDS011;6146;48.128;11.476;2023-03-14T00:55:24;1.07;;;0.40;;
12165;SDS011;6146;48.128;11.476;2023-03-14T00:57:49;0.50;;;0.50;;
12165;SDS011;6146;48.128;11.476;2023-03-14T01:00:15;0.63;;;0.60;;
12165;SDS011;6146;48.128;11.476;2023-03-14T01:02:41;0.50;;;0.40;;
12165;SDS011;6146;48.128;11.476;2023-03-14T01:05:07;1.00;;;0.43;;
12165;SDS011;6146;48.128;11.476;2023-03-14T01:07:35;0.20;;;0.20;;
12165;SDS011;6146;48.128;11.476;2023-03-14T01:10:01;0.80;;;0.60;;
12165;SDS011;6146;48.128;11.476;2023-03-14T01:12:27;0.50;;;0.50;;
12165;SDS011;6146;48.128;11.476;2023-03-14T01:14:52;0.40;;;0.30;;
12165;SDS011;6146;48.128;11.476;2023-03-14T01:17:18;0.33;;;0.30;;
12165;SDS011;6146;48.128;11.476;2023-03-14T01:19:43;0.53;;;0.33;;
12165;SDS011;6146;48.128;11.476;2023-03-14T01:22:09;0.77;;;0.40;;
12165;SDS011;6146;48.128;11.476;2023-03-14T01:24:36;0.40;;;0.40;;
12165;SDS011;6146;48.128;11.476;2023-03-14T01:27:02;0.40;;;0.40;;
12165;SDS011;6146;48.128;11.476;2023-03-14T01:29:28;0.83;;;0.60;;
12165;SDS011;6146;48.128;11.476;2023-03-14T01:31:54;0.50;;;0.50;;
12165;SDS011;6146;48.128;11.476;2023-03-14T01:34:20;2.10;;;0.70;;
12165;SDS011;6146;48.128;11.476;2023-03-14T01:36:45;1.77;;;0.70;;
12165;SDS011;6146;48.128;11.476;2023-03-14T01:39:11;2.10;;;0.70;;
12165;SDS011;6146;48.128;11.476;2023-03-14T01:41:38;1.70;;;0.90;;
12165;SDS011;6146;48.128;11.476;2023-03-14T01:44:05;1.83;;;0.90;;
12165;SDS011;6146;48.128;11.476;2023-03-14T01:46:37;0.53;;;0.53;;
12165;SDS011;6146;48.128;11.476;2023-03-14T01:49:07;1.60;;;0.60;;
12165;SDS011;6146;48.128;11.476;2023-03-14T01:54:16;0.60;;;0.50;;
12165;SDS011;6146;48.128;11.476;2023-03-14T01:56:43;1.03;;;0.60;;
12165;SDS011;6146;48.128;11.476;2023-03-14T01:59:12;2.40;;;0.63;;
12165;SDS011;6146;48.128;11.476;2023-03-14T02:01:40;0.63;;;0.60;;
12165;SDS011;6146;48.128;11.476;2023-03-14T02:04:09;1.43;;;0.83;;
12165;SDS011;6146;48.128;11.476;2023-03-14T02:06:47;1.57;;;0.50;;
12165;SDS011;6146;48.128;11.476;2023-03-14T02:09:32;1.80;;;0.80;;
12165;SDS011;6146;48.128;11.476;2023-03-14T02:11:58;0.57;;;0.57;;
12165;SDS011;6146;48.128;11.476;2023-03-14T02:14:29;0.70;;;0.57;;
12165;SDS011;6146;48.128;11.476;2023-03-14T02:16:58;0.63;;;0.50;;
12165;SDS011;6146;48.128;11.476;2023-03-14T02:19:36;1.33;;;0.60;;
12165;SDS011;6146;48.128;11.476;2023-03-14T02:22:14;1.47;;;0.50;;
12165;SDS011;6146;48.128;11.476;2023-03-14T02:24:43;0.83;;;0.60;;
12165;SDS011;6146;48.128;11.476;2023-03-14T02:27:29;0.80;;;0.50;;
12165;SDS011;6146;48.128;11.476;2023-03-14T02:29:59;0.40;;;0.40;;
12165;SDS011;6146;48.128;11.476;2023-03-14T02:32:29;0.50;;;0.43;;
12165;SDS011;6146;48.128;11.476;2023-03-14T02:34:57;0.40;;;0.30;;
12165;SDS011;6146;48.128;11.476;2023-03-14T02:37:41;0.70;;;0.50;;
12165;SDS011;6146;48.128;11.476;2023-03-14T02:40:08;0.67;;;0.50;;
12165;SDS011;6146;48.128;11.476;2023-03-14T02:42:34;0.60;;;0.50;;
12165;SDS011;6146;48.128;11.476;2023-03-14T02:45:24;0.47;;;0.40;;
12165;SDS011;6146;48.128;11.476;2023-03-14T02:47:49;0.50;;;0.50;;
12165;SDS011;6146;48.128;11.476;2023-03-14T02:50:20;0.30;;;0.30;;
12165;SDS011;6146;48.128;11.476;2023-03-14T02:52:49;1.20;;;0.50;;
12165;SDS011;6146;48.128;11.476;2023-03-14T02:55:19;0.43;;;0.40;;
12165;SDS011;6146;48.128;11.476;2023-03-14T02:57:46;0.40;;;0.40;;
12165;SDS011;6146;48.128;11.476;2023-03-14T03:00:12;0.50;;;0.50;;
12165;SDS011;6146;48.128;11.476;2023-03-14T03:02:38;0.63;;;0.50;;
12165;SDS011;6146;48.128;11.476;2023-03-14T03:05:03;0.57;;;0.47;;
12165;SDS011;6146;48.128;11.476;2023-03-14T03:07:29;1.20;;;0.97;;
12165;SDS011;6146;48.128;11.476;2023-03-14T03:09:55;0.30;;;0.30;;
12165;SDS011;6146;48.128;11.476;2023-03-14T03:12:20;0.30;;;0.30;;
12165;SDS011;6146;48.128;11.476;2023-03-14T03:14:46;0.37;;;0.30;;
12165;SDS011;6146;48.128;11.476;2023-03-14T03:17:11;1.07;;;0.47;;
12165;SDS011;6146;48.128;11.476;2023-03-14T03:19:37;0.47;;;0.43;;
12165;SDS011;6146;48.128;11.476;2023-03-14T03:22:02;0.30;;;0.30;;
12165;SDS011;6146;48.128;11.476;2023-03-14T03:24:28;1.43;;;0.40;;
12165;SDS011;6146;48.128;11.476;2023-03-14T03:26:54;0.30;;;0.30;;
12165;SDS011;6146;48.128;11.476;2023-03-14T03:29:19;0.40;;;0.40;;
12165;SDS011;6146;48.128;11.476;2023-03-14T03:31:45;0.87;;;0.30;;
12165;SDS011;6146;48.128;11.476;2023-03-14T03:34:11;0.10;;;0.10;;
12165;SDS011;6146;48.128;11.476;2023-03-14T03:36:37;0.20;;;0.20;;
12165;SDS011;6146;48.128;11.476;2023-03-14T03:39:03;0.47;;;0.20;;
12165;SDS011;6146;48.128;11.476;2023-03-14T03:41:29;0.23;;;0.23;;
12165;SDS011;6146;48.128;11.476;2023-03-14T03:43:55;0.20;;;0.20;;
12165;SDS011;6146;48.128;11.476;2023-03-14T03:46:21;0.33;;;0.33;;
12165;SDS011;6146;48.128;11.476;2023-03-14T03:48:47;0.57;;;0.20;;
12165;SDS011;6146;48.128;11.476;2023-03-14T03:51:13;0.13;;;0.13;;
12165;SDS011;6146;48.128;11.476;2023-03-14T03:53:40;0.30;;;0.30;;
12165;SDS011;6146;48.128;11.476;2023-03-14T03:56:07;0.20;;;0.20;;
12165;SDS011;6146;48.128;11.476;2023-03-14T03:58:34;0.40;;;0.23;;
12165;SDS011;6146;48.128;11.476;2023-03-14T04:00:59;0.70;;;0.30;;
12165;SDS011;6146;48.128;11.476;2023-03-14T04:03:25;0.30;;;0.30;;
12165;SDS011;6146;48.128;11.476;2023-03-14T04:06:07;0.23;;;0.23;;
12165;SDS011;6146;48.128;11.476;2023-03-14T04:08:34;0.30;;;0.30;;
12165;SDS011;6146;48.128;11.476;2023-03-14T04:11:00;0.10;;;0.10;;
12165;SDS011;6146;48.128;11.476;2023-03-14T04:13:27;0.20;;;0.10;;
12165;SDS011;6146;48.128;11.476;2023-03-14T04:15:53;0.43;;;0.43;;
12165;SDS011;6146;48.128;11.476;2023-03-14T04:18:20;0.23;;;0.23;;
12165;SDS011;6146;48.128;11.476;2023-03-14T04:20:50;0.30;;;0.30;;
12165;SDS011;6146;48.128;11.476;2023-03-14T04:23:16;0.43;;;0.20;;
12165;SDS011;6146;48.128;11.476;2023-03-14T04:25:42;0.23;;;0.20;;
12165;SDS011;6146;48.128;11.476;2023-03-14T04:28:07;0.17;;;0.10;;
12165;SDS011;6146;48.128;11.476;2023-03-14T04:30:33;0.10;;;0.10;;
12165;SDS011;6146;48.128;11.476;2023-03-14T04:32:58;0.37;;;0.37;;
12165;SDS011;6146;48.128;11.476;2023-03-14T04:35:24;0.30;;;0.30;;
12165;SDS011;6146;48.128;11.476;2023-03-14T04:37:50;0.10;;;0.10;;
12165;SDS011;6146;48.128;11.476;2023-03-14T04:40:17;0.20;;;0.20;;
12165;SDS011;6146;48.128;11.476;2023-03-14T04:42:42;0.20;;;0.20;;
12165;SDS011;6146;48.128;11.476;2023-03-14T04:45:08;1.20;;;0.30;;
12165;SDS011;6146;48.128;11.476;2023-03-14T04:47:34;0.30;;;0.20;;
12165;SDS011;6146;48.128;11.476;2023-03-14T04:50:00;0.10;;;0.10;;
12165;SDS011;6146;48.128;11.476;2023-03-14T04:52:26;1.03;;;0.20;;
12165;SDS011;6146;48.128;11.476;2023-03-14T04:54:51;0.13;;;0.13;;
12165;SDS011;6146;48.128;11.476;2023-03-14T04:57:17;0.10;;;0.10;;
12165;SDS011;6146;48.128;11.476;2023-03-14T04:59:43;0.20;;;0.20;;
12165;SDS011;6146;48.128;11.476;2023-03-14T05:02:08;0.50;;;0.30;;
12165;SDS011;6146;48.128;11.476;2023-03-14T05:04:34;1.07;;;0.10;;
12165;SDS011;6146;48.128;11.476;2023-03-14T05:06:59;0.33;;;0.23;;
12165;SDS011;6146;48.128;11.476;2023-03-14T05:09:25;0.23;;;0.20;;
12165;SDS011;6146;48.128;11.476;2023-03-14T05:11:51;0.20;;;0.20;;
12165;SDS011;6146;48.128;11.476;2023-03-14T05:14:17;0.10;;;0.10;;
12165;SDS011;6146;48.128;11.476;2023-03-14T05:16:42;0.37;;;0.30;;
12165;SDS011;6146;48.128;11.476;2023-03-14T05:19:08;0.40;;;0.40;;
12165;SDS011;6146;48.128;11.476;2023-03-14T05:21:33;0.43;;;0.33;;
12165;SDS011;6146;48.128;11.476;2023-03-14T05:23:59;0.20;;;0.20;;
12165;SDS011;6146;48.128;11.476;2023-03-14T05:26:24;0.33;;;0.30;;
12165;SDS011;6146;48.128;11.476;2023-03-14T05:28:50;0.63;;;0.40;;
12165;SDS011;6146;48.128;11.476;2023-03-14T05:31:15;0.10;;;0.10;;
12165;SDS011;6146;48.128;11.476;2023-03-14T05:33:41;0.30;;;0.27;;
12165;SDS011;6146;48.128;11.476;2023-03-14T05:36:07;0.20;;;0.20;;
12165;SDS011;6146;48.128;11.476;2023-03-14T05:38:33;0.87;;;0.30;;
12165;SDS011;6146;48.128;11.476;2023-03-14T05:40:58;0.30;;;0.30;;
12165;SDS011;6146;48.128;11.476;2023-03-14T05:43:24;0.20;;;0.20;;
12165;SDS011;6146;48.128;11.476;2023-03-14T05:45:49;0.10;;;0.10;;
12165;SDS011;6146;48.128;11.476;2023-03-14T05:48:15;0.30;;;0.30;;
12165;SDS011;6146;48.128;11.476;2023-03-14T05:50:41;0.60;;;0.37;;
12165;SDS011;6146;48.128;11.476;2023-03-14T05:53:07;0.20;;;0.20;;
12165;SDS011;6146;48.128;11.476;2023-03-14T05:55:33;0.50;;;0.50;;
12165;SDS011;6146;48.128;11.476;2023-03-14T05:57:58;0.57;;;0.33;;
12165;SDS011;6146;48.128;11.476;2023-03-14T06:00:24;0.43;;;0.40;;
12165;SDS011;6146;48.128;11.476;2023-03-14T06:02:49;0.30;;;0.30;;
12165;SDS011;6146;48.128;11.476;2023-03-14T06:05:15;0.50;;;0.43;;
12165;SDS011;6146;48.128;11.476;2023-03-14T06:07:40;0.40;;;0.40;;
12165;SDS011;6146;48.128;11.476;2023-03-14T06:10:06;0.70;;;0.60;;
12165;SDS011;6146;48.128;11.476;2023-03-14T06:12:32;0.27;;;0.20;;
12165;SDS011;6146;48.128;11.476;2023-03-14T06:14:58;0.50;;;0.50;;
12165;SDS011;6146;48.128;11.476;2023-03-14T06:17:23;0.67;;;0.50;;
12165;SDS011;6146;48.128;11.476;2023-03-14T06:19:49;0.33;;;0.33;;
12165;SDS011;6146;48.128;11.476;2023-03-14T06:22:14;0.53;;;0.40;;
12165;SDS011;6146;48.128;11.476;2023-03-14T06:24:40;0.93;;;0.60;;
12165;SDS011;6146;48.128;11.476;2023-03-14T06:27:06;0.40;;;0.30;;
12165;SDS011;6146;48.128;11.476;2023-03-14T06:29:31;0.30;;;0.30;;
12165;SDS011;6146;48.128;11.476;2023-03-14T06:31:57;0.67;;;0.50;;
12165;SDS011;6146;48.128;11.476;2023-03-14T06:34:22;1.37;;;0.40;;
12165;SDS011;6146;48.128;11.476;2023-03-14T06:36:48;0.33;;;0.33;;
12165;SDS011;6146;48.128;11.476;2023-03-14T06:39:14;1.83;;;0.30;;
12165;SDS011;6146;48.128;11.476;2023-03-14T06:41:39;0.60;;;0.60;;
12165;SDS011;6146;48.128;11.476;2023-03-14T06:44:05;0.40;;;0.40;;
12165;SDS011;6146;48.128;11.476;2023-03-14T06:46:30;0.70;;;0.40;;
12165;SDS011;6146;48.128;11.476;2023-03-14T06:48:56;1.93;;;0.43;;
12165;SDS011;6146;48.128;11.476;2023-03-14T06:51:22;1.63;;;0.63;;
12165;SDS011;6146;48.128;11.476;2023-03-14T06:53:47;2.57;;;0.70;;
12165;SDS011;6146;48.128;11.476;2023-03-14T06:56:13;1.57;;;0.80;;
12165;SDS011;6146;48.128;11.476;2023-03-14T06:58:39;0.87;;;0.70;;
12165;SDS011;6146;48.128;11.476;2023-03-14T07:01:04;0.60;;;0.60;;
12165;SDS011;6146;48.128;11.476;2023-03-14T07:03:30;1.10;;;0.73;;
12165;SDS011;6146;48.128;11.476;2023-03-14T07:05:56;1.43;;;0.70;;
12165;SDS011;6146;48.128;11.476;2023-03-14T07:08:22;0.77;;;0.73;;
12165;SDS011;6146;48.128;11.476;2023-03-14T07:10:47;1.37;;;0.77;;
12165;SDS011;6146;48.128;11.476;2023-03-14T07:13:13;0.60;;;0.60;;
12165;SDS011;6146;48.128;11.476;2023-03-14T07:15:39;0.80;;;0.80;;
12165;SDS011;6146;48.128;11.476;2023-03-14T07:18:04;1.17;;;0.57;;
12165;SDS011;6146;48.128;11.476;2023-03-14T07:20:30;0.60;;;0.60;;
12165;SDS011;6146;48.128;11.476;2023-03-14T07:22:57;0.73;;;0.73;;
12165;SDS011;6146;48.128;11.476;2023-03-14T07:25:24;0.87;;;0.70;;
12165;SDS011;6146;48.128;11.476;2023-03-14T07:27:50;1.80;;;0.83;;
12165;SDS011;6146;48.128;11.476;2023-03-14T07:30:16;0.60;;;0.60;;
12165;SDS011;6146;48.128;11.476;2023-03-14T07:32:41;0.57;;;0.50;;
12165;SDS011;6146;48.128;11.476;2023-03-14T07:35:07;1.23;;;0.50;;
12165;SDS011;6146;48.128;11.476;2023-03-14T07:37:33;0.53;;;0.53;;
12165;SDS011;6146;48.128;11.476;2023-03-14T07:39:59;3.10;;;0.80;;
12165;SDS011;6146;48.128;11.476;2023-03-14T07:42:24;1.57;;;0.77;;
12165;SDS011;6146;48.128;11.476;2023-03-14T07:44:50;1.37;;;0.57;;
12165;SDS011;6146;48.128;11.476;2023-03-14T07:47:15;0.83;;;0.60;;
12165;SDS011;6146;48.128;11.476;2023-03-14T07:49:41;1.07;;;0.67;;
12165;SDS011;6146;48.128;11.476;2023-03-14T07:52:06;0.60;;;0.60;;
12165;SDS011;6146;48.128;11.476;2023-03-14T07:54:32;0.97;;;0.73;;
12165;SDS011;6146;48.128;11.476;2023-03-14T07:56:58;0.70;;;0.70;;
12165;SDS011;6146;48.128;11.476;2023-03-14T07:59:26;1.40;;;1.30;;
12165;SDS011;6146;48.128;11.476;2023-03-14T08:01:52;0.50;;;0.50;;
12165;SDS011;6146;48.128;11.476;2023-03-14T08:04:18;0.80;;;0.63;;
12165;SDS011;6146;48.128;11.476;2023-03-14T08:06:43;0.57;;;0.57;;
12165;SDS011;6146;48.128;11.476;2023-03-14T08:09:09;2.37;;;0.70;;
12165;SDS011;6146;48.128;11.476;2023-03-14T08:11:35;0.57;;;0.57;;
12165;SDS011;6146;48.128;11.476;2023-03-14T08:14:01;0.60;;;0.60;;
12165;SDS011;6146;48.128;11.476;2023-03-14T08:16:27;0.50;;;0.50;;
12165;SDS011;6146;48.128;11.476;2023-03-14T08:18:52;1.50;;;0.60;;
12165;SDS011;6146;48.128;11.476;2023-03-14T08:21:18;1.47;;;0.50;;
12165;SDS011;6146;48.128;11.476;2023-03-14T08:23:43;1.80;;;0.70;;
12165;SDS011;6146;48.128;11.476;2023-03-14T08:26:09;0.73;;;0.73;;
12165;SDS011;6146;48.128;11.476;2023-03-14T08:28:34;0.70;;;0.70;;
12165;SDS011;6146;48.128;11.476;2023-03-14T08:31:00;0.70;;;0.63;;
12165;SDS011;6146;48.128;11.476;2023-03-14T08:33:26;1.13;;;1.03;;
12165;SDS011;6146;48.128;11.476;2023-03-14T08:35:54;0.50;;;0.50;;
12165;SDS011;6146;48.128;11.476;2023-03-14T08:38:20;1.13;;;1.00;;
12165;SDS011;6146;48.128;11.476;2023-03-14T08:40:46;0.90;;;0.70;;
12165;SDS011;6146;48.128;11.476;2023-03-14T08:43:12;0.40;;;0.40;;
12165;SDS011;6146;48.128;11.476;2023-03-14T08:45:38;2.10;;;1.23;;
12165;SDS011;6146;48.128;11.476;2023-03-14T08:48:03;0.60;;;0.60;;
12165;SDS011;6146;48.128;11.476;2023-03-14T08:50:29;0.97;;;0.50;;
12165;SDS011;6146;48.128;11.476;2023-03-14T08:52:55;1.13;;;0.70;;
12165;SDS011;6146;48.128;11.476;2023-03-14T08:55:23;0.77;;;0.63;;
12165;SDS011;6146;48.128;11.476;2023-03-14T08:57:48;0.97;;;0.70;;
12165;SDS011;6146;48.128;11.476;2023-03-14T09:00:14;1.10;;;0.70;;
12165;SDS011;6146;48.128;11.476;2023-03-14T09:02:40;0.87;;;0.57;;
12165;SDS011;6146;48.128;11.476;2023-03-14T09:05:08;1.20;;;0.73;;
12165;SDS011;6146;48.128;11.476;2023-03-14T09:07:33;2.10;;;0.90;;
12165;SDS011;6146;48.128;11.476;2023-03-14T09:09:59;1.70;;;0.60;;
12165;SDS011;6146;48.128;11.476;2023-03-14T09:12:24;1.23;;;0.60;;
12165;SDS011;6146;48.128;11.476;2023-03-14T09:14:50;0.77;;;0.73;;
12165;SDS011;6146;48.128;11.476;2023-03-14T09:17:15;0.90;;;0.60;;
12165;SDS011;6146;48.128;11.476;2023-03-14T09:19:41;1.97;;;0.60;;
12165;SDS011;6146;48.128;11.476;2023-03-14T09:22:07;0.60;;;0.60;;
12165;SDS011;6146;48.128;11.476;2023-03-14T09:24:32;1.20;;;0.67;;
12165;SDS011;6146;48.128;11.476;2023-03-14T09:26:58;1.17;;;0.53;;
12165;SDS011;6146;48.128;11.476;2023-03-14T09:29:23;1.10;;;0.90;;
12165;SDS011;6146;48.128;11.476;2023-03-14T09:31:49;3.80;;;0.67;;
12165;SDS011;6146;48.128;11.476;2023-03-14T09:34:15;0.60;;;0.60;;
12165;SDS011;6146;48.128;11.476;2023-03-14T09:36:41;0.60;;;0.60;;
12165;SDS011;6146;48.128;11.476;2023-03-14T09:39:09;1.53;;;0.83;;
12165;SDS011;6146;48.128;11.476;2023-03-14T09:41:36;2.00;;;0.83;;
12165;SDS011;6146;48.128;11.476;2023-03-14T09:44:10;0.83;;;0.77;;
12165;SDS011;6146;48.128;11.476;2023-03-14T09:46:51;0.80;;;0.80;;
12165;SDS011;6146;48.128;11.476;2023-03-14T09:49:24;2.63;;;1.00;;
12165;SDS011;6146;48.128;11.476;2023-03-14T09:51:59;4.53;;;1.03;;
12165;SDS011;6146;48.128;11.476;2023-03-14T09:57:04;0.50;;;0.50;;
12165;SDS011;6146;48.128;11.476;2023-03-14T09:59:31;1.30;;;0.73;;
12165;SDS011;6146;48.128;11.476;2023-03-14T10:02:01;2.60;;;1.20;;
12165;SDS011;6146;48.128;11.476;2023-03-14T10:04:36;0.57;;;0.57;;
12165;SDS011;6146;48.128;11.476;2023-03-14T10:07:07;0.63;;;0.63;;
12165;SDS011;6146;48.128;11.476;2023-03-14T10:09:37;2.37;;;0.83;;
12165;SDS011;6146;48.128;11.476;2023-03-14T10:12:02;0.93;;;0.73;;
12165;SDS011;6146;48.128;11.476;2023-03-14T10:14:32;0.53;;;0.50;;
12165;SDS011;6146;48.128;11.476;2023-03-14T10:17:09;1.00;;;0.50;;
12165;SDS011;6146;48.128;11.476;2023-03-14T10:19:37;1.17;;;0.60;;
12165;SDS011;6146;48.128;11.476;2023-03-14T10:22:15;0.40;;;0.40;;
12165;SDS011;6146;48.128;11.476;2023-03-14T10:24:45;2.37;;;0.70;;
12165;SDS011;6146;48.128;11.476;2023-03-14T10:27:19;2.27;;;0.77;;
12165;SDS011;6146;48.128;11.476;2023-03-14T10:29:51;0.83;;;0.70;;
12165;SDS011;6146;48.128;11.476;2023-03-14T10:32:19;0.57;;;0.57;;
12165;SDS011;6146;48.128;11.476;2023-03-14T10:34:46;1.20;;;0.73;;
12165;SDS011;6146;48.128;11.476;2023-03-14T10:37:31;2.07;;;0.57;;
12165;SDS011;6146;48.128;11.476;2023-03-14T10:40:00;0.67;;;0.50;;
12165;SDS011;6146;48.128;11.476;2023-03-14T10:42:34;0.70;;;0.40;;
12165;SDS011;6146;48.128;11.476;2023-03-14T10:45:50;0.30;;;0.30;;
12165;SDS011;6146;48.128;11.476;2023-03-14T10:47:57;0.30;;;0.30;;
12165;SDS011;6146;48.128;11.476;2023-03-14T10:50:47;1.67;;;0.73;;
12165;SDS011;6146;48.128;11.476;2023-03-14T10:53:18;0.60;;;0.60;;
12165;SDS011;6146;48.128;11.476;2023-03-14T10:55:44;0.67;;;0.57;;
12165;SDS011;6146;48.128;11.476;2023-03-14T11:01:12;1.57;;;0.70;;
12165;SDS011;6146;48.128;11.476;2023-03-14T11:03:49;1.17;;;0.50;;
12165;SDS011;6146;48.128;11.476;2023-03-14T11:11:50;1.13;;;0.47;;
12165;SDS011;6146;48.128;11.476;2023-03-14T11:17:00;0.40;;;0.40;;
12165;SDS011;6146;48.128;11.476;2023-03-14T11:22:46;1.33;;;0.60;;
12165;SDS011;6146;48.128;11.476;2023-03-14T11:28:57;5.27;;;0.83;;
12165;SDS011;6146;48.128;11.476;2023-03-14T11:34:01;0.73;;;0.30;;
12165;SDS011;6146;48.128;11.476;2023-03-14T11:36:41;0.60;;;0.40;;
12165;SDS011;6146;48.128;11.476;2023-03-14T11:39:38;0.57;;;0.50;;
12165;SDS011;6146;48.128;11.476;2023-03-14T11:42:07;0.80;;;0.50;;
12165;SDS011;6146;48.128;11.476;2023-03-14T11:44:37;0.60;;;0.60;;
12165;SDS011;6146;48.128;11.476;2023-03-14T11:47:18;1.10;;;0.50;;
12165;SDS011;6146;48.128;11.476;2023-03-14T11:49:53;0.63;;;0.50;;
12165;SDS011;6146;48.128;11.476;2023-03-14T11:52:25;0.73;;;0.37;;
12165;SDS011;6146;48.128;11.476;2023-03-14T11:55:21;0.53;;;0.40;;
12165;SDS011;6146;48.128;11.476;2023-03-14T11:57:50;0.50;;;0.50;;
12165;SDS011;6146;48.128;11.476;2023-03-14T12:00:19;0.70;;;0.63;;
12165;SDS011;6146;48.128;11.476;2023-03-14T12:13:10;0.90;;;0.70;;
12165;SDS011;6146;48.128;11.476;2023-03-14T12:15:39;0.83;;;0.20;;
12165;SDS011;6146;48.128;11.476;2023-03-14T12:18:41;1.00;;;0.43;;
12165;SDS011;6146;48.128;11.476;2023-03-14T12:21:04;1.70;;;0.40;;
12165;SDS011;6146;48.128;11.476;2023-03-14T12:23:36;1.10;;;0.60;;
12165;SDS011;6146;48.128;11.476;2023-03-14T12:28:44;0.87;;;0.40;;
12165;SDS011;6146;48.128;11.476;2023-03-14T12:47:54;0.30;;;0.30;;
12165;SDS011;6146;48.128;11.476;2023-03-14T13:01:54;2.63;;;0.43;;
12165;SDS011;6146;48.128;11.476;2023-03-14T13:04:28;0.20;;;0.20;;
12165;SDS011;6146;48.128;11.476;2023-03-14T13:06:58;0.17;;;0.17;;
12165;SDS011;6146;48.128;11.476;2023-03-14T13:11:54;0.20;;;0.20;;
12165;SDS011;6146;48.128;11.476;2023-03-14T13:14:20;0.50;;;0.40;;
12165;SDS011;6146;48.128;11.476;2023-03-14T13:16:48;0.47;;;0.47;;
12165;SDS011;6146;48.128;11.476;2023-03-14T13:19:22;0.93;;;0.33;;
12165;SDS011;6146;48.128;11.476;2023-03-14T13:21:50;0.33;;;0.33;;
12165;SDS011;6146;48.128;11.476;2023-03-14T13:24:23;0.10;;;0.10;;
12165;SDS011;6146;48.128;11.476;2023-03-14T13:26:52;0.40;;;0.20;;
12165;SDS011;6146;48.128;11.476;2023-03-14T13:29:30;0.40;;;0.30;;
12165;SDS011;6146;48.128;11.476;2023-03-14T13:31:58;0.40;;;0.40;;
12165;SDS011;6146;48.128;11.476;2023-03-14T13:34:26;0.30;;;0.23;;
12165;SDS011;6146;48.128;11.476;2023-03-14T13:36:54;0.10;;;0.10;;
12165;SDS011;6146;48.128;11.476;2023-03-14T13:39:22;0.20;;;0.20;;
12165;SDS011;6146;48.128;11.476;2023-03-14T13:41:50;1.90;;;0.40;;
12165;SDS011;6146;48.128;11.476;2023-03-14T13:46:57;0.47;;;0.40;;
12165;SDS011;6146;48.128;11.476;2023-03-14T13:49:25;0.57;;;0.57;;
12165;SDS011;6146;48.128;11.476;2023-03-14T13:51:53;0.30;;;0.30;;
12165;SDS011;6146;48.128;11.476;2023-03-14T13:54:20;0.20;;;0.20;;
12165;SDS011;6146;48.128;11.476;2023-03-14T13:56:46;0.40;;;0.40;;
12165;SDS011;6146;48.128;11.476;2023-03-14T14:01:47;0.57;;;0.40;;
12165;SDS011;6146;48.128;11.476;2023-03-14T14:04:14;0.23;;;0.23;;
12165;SDS011;6146;48.128;11.476;2023-03-14T14:06:47;0.40;;;0.30;;
12165;SDS011;6146;48.128;11.476;2023-03-14T14:09:18;0.27;;;0.27;;
12165;SDS011;6146;48.128;11.476;2023-03-14T14:11:48;1.13;;;0.33;;
12165;SDS011;6146;48.128;11.476;2023-03-14T14:14:43;0.50;;;0.50;;
12165;SDS011;6146;48.128;11.476;2023-03-14T14:17:35;1.43;;;0.50;;
12165;SDS011;6146;48.128;11.476;2023-03-14T14:20:04;1.20;;;0.87;;
12165;SDS011;6146;48.128;11.476;2023-03-14T14:22:32;0.70;;;0.60;;
12165;SDS011;6146;48.128;11.476;2023-03-14T14:24:59;1.13;;;0.50;;
12165;SDS011;6146;48.128;11.476;2023-03-14T14:27:38;1.20;;;0.40;;
12165;SDS011;6146;48.128;11.476;2023-03-14T14:30:24;0.27;;;0.27;;
12165;SDS011;6146;48.128;11.476;2023-03-14T14:32:55;1.23;;;0.30;;
12165;SDS011;6146;48.128;11.476;2023-03-14T14:35:56;0.40;;;0.40;;
12165;SDS011;6146;48.128;11.476;2023-03-14T14:38:24;1.33;;;0.30;;
12165;SDS011;6146;48.128;11.476;2023-03-14T14:40:54;0.37;;;0.17;;
12165;SDS011;6146;48.128;11.476;2023-03-14T14:43:25;0.50;;;0.50;;
12165;SDS011;6146;48.128;11.476;2023-03-14T14:45:53;0.40;;;0.40;;
12165;SDS011;6146;48.128;11.476;2023-03-14T14:48:23;0.40;;;0.40;;
12165;SDS011;6146;48.128;11.476;2023-03-14T14:55:56;1.33;;;0.40;;
12165;SDS011;6146;48.128;11.476;2023-03-14T15:00:50;1.03;;;0.27;;
12165;SDS011;6146;48.128;11.476;2023-03-14T15:03:20;0.30;;;0.30;;
12165;SDS011;6146;48.128;11.476;2023-03-14T15:05:46;0.30;;;0.30;;
12165;SDS011;6146;48.128;11.476;2023-03-14T15:08:12;0.30;;;0.13;;
12165;SDS011;6146;48.128;11.476;2023-03-14T15:10:37;0.30;;;0.30;;
12165;SDS011;6146;48.128;11.476;2023-03-14T15:13:03;0.30;;;0.30;;
12165;SDS011;6146;48.128;11.476;2023-03-14T15:15:29;0.83;;;0.50;;
12165;SDS011;6146;48.128;11.476;2023-03-14T15:17:54;0.20;;;0.20;;
12165;SDS011;6146;48.128;11.476;2023-03-14T15:20:20;0.50;;;0.50;;
12165;SDS011;6146;48.128;11.476;2023-03-14T15:22:48;0.53;;;0.50;;
12165;SDS011;6146;48.128;11.476;2023-03-14T15:25:14;0.40;;;0.40;;
12165;SDS011;6146;48.128;11.476;2023-03-14T15:27:41;1.13;;;0.70;;
12165;SDS011;6146;48.128;11.476;2023-03-14T15:30:14;0.47;;;0.47;;
12165;SDS011;6146;48.128;11.476;2023-03-14T15:32:41;0.40;;;0.40;;
12165;SDS011;6146;48.128;11.476;2023-03-14T15:35:07;0.87;;;0.70;;
12165;SDS011;6146;48.128;11.476;2023-03-14T15:37:33;0.50;;;0.50;;
12165;SDS011;6146;48.128;11.476;2023-03-14T15:40:00;1.27;;;1.03;;
12165;SDS011;6146;48.128;11.476;2023-03-14T15:42:27;1.10;;;1.00;;
12165;SDS011;6146;48.128;11.476;2023-03-14T15:44:53;1.60;;;1.07;;
12165;SDS011;6146;48.128;11.476;2023-03-14T15:47:19;1.80;;;1.00;;
12165;SDS011;6146;48.128;11.476;2023-03-14T15:49:44;0.97;;;0.97;;
12165;SDS011;6146;48.128;11.476;2023-03-14T15:52:10;1.50;;;1.20;;
12165;SDS011;6146;48.128;11.476;2023-03-14T15:54:35;2.23;;;1.10;;
12165;SDS011;6146;48.128;11.476;2023-03-14T15:57:01;1.50;;;0.90;;
12165;SDS011;6146;48.128;11.476;2023-03-14T15:59:26;1.60;;;1.10;;
12165;SDS011;6146;48.128;11.476;2023-03-14T16:01:52;1.77;;;1.10;;
12165;SDS011;6146;48.128;11.476;2023-03-14T16:04:18;1.73;;;1.03;;
12165;SDS011;6146;48.128;11.476;2023-03-14T16:06:43;1.13;;;1.03;;
12165;SDS011;6146;48.128;11.476;2023-03-14T16:09:10;0.80;;;0.80;;
12165;SDS011;6146;48.128;11.476;2023-03-14T16:11:36;1.57;;;1.07;;
12165;SDS011;6146;48.128;11.476;2023-03-14T16:14:02;1.17;;;1.00;;
12165;SDS011;6146;48.128;11.476;2023-03-14T16:16:28;1.00;;;0.90;;